createdAt,value
2017-06-02T00:02:32.000Z,48.8
2017-06-02T00:19:23.000Z,48.4
2017-06-02T00:36:13.000Z,48.4
2017-06-02T00:53:03.000Z,48.4
2017-06-02T01:09:52.000Z,49.2
2017-06-02T01:26:42.000Z,49.2
2017-06-02T01:43:32.000Z,49.2
2017-06-02T02:00:23.000Z,48.8
2017-06-02T02:17:12.000Z,48.8
2017-06-02T02:34:02.000Z,48.8
2017-06-02T02:50:52.000Z,48.8
2017-06-02T03:07:41.000Z,48.8
2017-06-02T03:24:31.000Z,49.6
2017-06-02T03:41:21.000Z,49.2
2017-06-02T03:58:11.000Z,49.2
2017-06-02T04:15:00.000Z,48.8
2017-06-02T04:31:49.000Z,48.8
2017-06-02T04:48:40.000Z,48.8
2017-06-02T05:05:30.000Z,48.8
2017-06-02T05:22:20.000Z,48.4
2017-06-02T05:39:11.000Z,48.8
2017-06-02T05:56:02.000Z,48
2017-06-02T06:12:54.000Z,47.2
2017-06-02T06:29:45.000Z,47.2
2017-06-02T06:46:39.000Z,47.2
2017-06-02T07:03:31.000Z,47.6
2017-06-02T07:20:23.000Z,47.6
2017-06-02T07:37:16.000Z,47.6
2017-06-02T07:54:08.000Z,48
2017-06-02T08:11:01.000Z,48.4
2017-06-02T08:27:53.000Z,48.4
2017-06-02T08:44:46.000Z,48
2017-06-02T09:01:39.000Z,47.6
2017-06-02T09:18:32.000Z,46.4
2017-06-02T09:35:26.000Z,46.4
2017-06-02T09:52:19.000Z,46.4
2017-06-02T10:09:12.000Z,46.4
2017-06-02T10:26:05.000Z,46
2017-06-02T10:42:58.000Z,45.6
2017-06-02T10:59:52.000Z,45.6
2017-06-02T11:16:47.000Z,45.2
2017-06-02T11:33:40.000Z,44.8
2017-06-02T11:50:34.000Z,44.8
2017-06-02T12:07:28.000Z,44.8
2017-06-02T12:24:23.000Z,44.8
2017-06-02T12:41:17.000Z,44.8
2017-06-02T12:58:11.000Z,44.8
2017-06-02T13:15:05.000Z,44.8
2017-06-02T13:31:59.000Z,44.8
2017-06-02T13:48:54.000Z,44.8
2017-06-02T14:05:48.000Z,43.6
2017-06-02T14:22:42.000Z,44
2017-06-02T14:39:36.000Z,44.4
2017-06-02T14:56:31.000Z,44.8
2017-06-02T15:13:25.000Z,45.6
2017-06-02T15:30:20.000Z,46
2017-06-02T15:47:15.000Z,46
2017-06-02T16:04:08.000Z,45.6
2017-06-02T16:21:03.000Z,46.4
2017-06-02T19:26:56.000Z,48.4
2017-06-02T19:43:49.000Z,48.4
2017-06-02T20:00:42.000Z,48.4
2017-06-02T20:17:35.000Z,48.8
2017-06-02T20:34:28.000Z,50
2017-06-02T20:51:22.000Z,50.4
2017-06-02T21:04:53.000Z,52.4
2017-06-02T21:21:46.000Z,54.4
2017-06-02T21:38:39.000Z,54.8
2017-06-02T21:55:31.000Z,56.4
2017-06-02T22:12:23.000Z,56.8
2017-06-02T22:29:16.000Z,57.6
2017-06-02T22:46:07.000Z,57.6
2017-06-02T23:02:59.000Z,58.8
2017-06-02T23:19:51.000Z,59.2
2017-06-02T23:36:43.000Z,58.8
2017-06-02T23:53:35.000Z,58
